Time;durP1;ratioP1;P1;durP2;ratioP2;P2;SDS_P1;SDS_P2;PMS_P1;PMS_P2;Temp;Humidity;BMP_temperature;BMP_pressure;BME280_temperature;BME280_humidity;BME280_pressure;Samples;Min_cycle;Max_cycle;Signal;HPM_P1;HPM_P2
2022/05/11 00:01:26;;;;;;;5.00;3.47;;;;;;;10.94;84.60;93450.78;5071292;28;20098;-85
2022/05/11 00:03:53;;;;;;;5.47;3.75;;;;;;;10.96;83.83;93462.44;5071547;28;20055;-85
2022/05/11 00:06:20;;;;;;;5.13;3.70;;;;;;;10.92;84.58;93456.13;5070614;28;20055;-85
2022/05/11 00:08:47;;;;;;;4.45;3.45;;;;;;;10.85;84.67;93442.53;5070908;28;20041;-85
2022/05/11 00:11:16;;;;;;;5.65;3.10;;;;;;;10.82;83.40;93448.84;5071691;28;20518;-86
2022/05/11 00:13:43;;;;;;;4.38;3.25;;;;;;;10.52;83.07;93422.91;5071203;28;20086;-86
2022/05/11 00:16:10;;;;;;;3.85;2.95;;;;;;;10.61;83.60;93444.00;5071161;28;20084;-85
2022/05/11 00:18:37;;;;;;;4.72;3.45;;;;;;;10.64;84.37;93451.31;5071264;28;20048;-86
2022/05/11 00:21:04;;;;;;;4.85;3.63;;;;;;;10.60;84.27;93450.91;5070897;28;20250;-86
2022/05/11 00:23:31;;;;;;;3.78;2.85;;;;;;;10.36;85.27;93431.78;5070869;28;20521;-83
2022/05/11 00:25:58;;;;;;;6.68;3.63;;;;;;;10.43;84.75;93453.16;5070779;28;20406;-84
2022/05/11 00:28:26;;;;;;;3.85;3.00;;;;;;;10.42;84.28;93451.56;5071057;28;20044;-84
2022/05/11 00:30:53;;;;;;;4.28;3.10;;;;;;;10.28;84.00;93430.25;5070940;28;20102;-84
2022/05/11 00:33:20;;;;;;;5.32;3.33;;;;;;;10.36;83.95;93445.44;5070846;28;20101;-84
2022/05/11 00:35:50;;;;;;;5.53;3.58;;;;;;;10.24;84.54;93434.97;5070792;28;20044;-84
2022/05/11 00:38:20;;;;;;;4.55;3.20;;;;;;;10.24;84.61;93434.22;5075216;28;20122;-84
2022/05/11 00:40:50;;;;;;;6.20;3.70;;;;;;;10.19;84.67;93429.69;5090865;28;20052;-84
2022/05/11 00:43:28;;;;;;;4.82;3.63;;;;;;;10.17;85.67;93431.66;5091052;28;20048;-84
2022/05/11 00:45:57;;;;;;;5.35;3.58;;;;;;;10.07;85.74;93426.94;5090813;28;20048;-83
2022/05/11 00:51:15;;;;;;;6.80;3.83;;;;;;;10.06;86.84;93430.50;5090872;28;20063;-85
2022/05/11 00:53:46;;;;;;;5.05;3.35;;;;;;;9.98;87.43;93426.38;5090827;28;20094;-84
2022/05/11 00:56:14;;;;;;;4.90;3.45;;;;;;;9.83;88.32;93426.59;5090715;28;20044;-85
2022/05/11 00:58:48;;;;;;;4.68;3.28;;;;;;;9.74;88.87;93426.00;5090824;28;20044;-85
2022/05/11 01:01:15;;;;;;;4.88;3.53;;;;;;;9.59;90.03;93418.50;5090532;28;20052;-85
2022/05/11 01:03:45;;;;;;;4.82;3.50;;;;;;;9.66;90.04;93433.09;5090944;28;20399;-85
2022/05/11 01:06:13;;;;;;;4.63;3.47;;;;;;;9.64;90.27;93438.44;5090890;28;20044;-84
2022/05/11 01:08:40;;;;;;;4.32;3.30;;;;;;;9.57;89.98;93424.81;5090621;28;20405;-84
2022/05/11 01:11:08;;;;;;;7.20;3.80;;;;;;;9.49;90.64;93424.03;5090732;28;20391;-85
2022/05/11 01:13:39;;;;;;;5.88;3.15;;;;;;;9.52;91.69;93445.13;5087718;28;20044;-85
2022/05/11 01:16:07;;;;;;;5.15;3.60;;;;;;;9.44;92.92;93436.66;5090543;28;20556;-85
2022/05/11 01:18:34;;;;;;;4.97;3.55;;;;;;;9.41;93.12;93441.38;5094578;28;20498;-85
2022/05/11 01:21:04;;;;;;;5.13;3.63;;;;;;;9.12;97.03;93428.72;5094520;28;20040;-85
2022/05/11 01:23:39;;;;;;;6.50;3.97;;;;;;;9.08;95.55;93430.91;5094498;28;20048;-85
2022/05/11 01:26:07;;;;;;;4.75;3.58;;;;;;;8.97;97.04;93417.88;5094508;28;20097;-84
2022/05/11 01:28:40;;;;;;;5.30;3.85;;;;;;;9.01;98.76;93442.09;5094190;28;20047;-84
2022/05/11 01:31:10;;;;;;;5.78;3.95;;;;;;;8.98;99.91;93438.16;5094486;28;20075;-84
2022/05/11 01:33:40;;;;;;;5.85;3.40;;;;;;;9.03;98.56;93429.91;5094318;28;20114;-84
2022/05/11 01:36:16;;;;;;;5.80;4.20;;;;;;;9.02;100.00;93441.16;5094226;28;20052;-85
2022/05/11 01:38:44;;;;;;;;;;;;;;;9.02;98.55;93439.34;5086283;28;20098;-85
2022/05/11 01:41:15;;;;;;;7.10;3.47;;;;;;;9.03;98.01;93440.94;5074418;28;19924;-85
2022/05/11 01:43:42;;;;;;;5.85;3.78;;;;;;;9.01;97.07;93427.53;5074072;28;20044;-84
2022/05/11 01:46:10;;;;;;;5.63;3.78;;;;;;;9.09;97.27;93439.38;5073853;28;20102;-85
2022/05/11 01:48:37;;;;;;;5.70;3.80;;;;;;;9.04;94.87;93424.59;5073713;28;20499;-84
2022/05/11 01:51:04;;;;;;;4.65;3.72;;;;;;;9.22;93.17;93438.63;5073558;28;20541;-84
2022/05/11 01:53:31;;;;;;;5.88;3.80;;;;;;;9.26;93.17;93439.78;5073560;28;20044;-84
2022/05/11 01:55:58;;;;;;;4.82;3.60;;;;;;;9.25;93.05;93440.00;5073829;28;20106;-85
2022/05/11 01:58:26;;;;;;;4.88;3.85;;;;;;;9.15;93.01;93436.03;5073704;28;20094;-84
2022/05/11 02:00:54;;;;;;;5.07;3.50;;;;;;;9.16;92.71;93440.16;5073510;28;20044;-84
2022/05/11 02:03:20;;;;;;;6.55;4.10;;;;;;;9.10;93.89;93446.09;5073483;28;20044;-85
2022/05/11 02:08:32;;;;;;;5.28;3.92;;;;;;;9.06;93.71;93442.31;5073491;28;20060;-85
2022/05/11 02:10:59;;;;;;;5.35;3.67;;;;;;;9.08;93.92;93438.59;5073431;28;20126;-85
2022/05/11 02:13:28;;;;;;;6.85;3.95;;;;;;;8.39;94.28;93346.38;5073242;28;20040;-85
2022/05/11 02:15:55;;;;;;;5.18;3.47;;;;;;;9.11;93.65;93441.75;5073081;28;20056;-84
2022/05/11 02:18:22;;;;;;;5.72;4.22;;;;;;;9.11;93.64;93439.19;5073080;28;20049;-85
2022/05/11 02:20:49;;;;;;;5.40;3.80;;;;;;;9.08;92.44;93440.38;5073393;28;20067;-85
2022/05/11 02:23:18;;;;;;;4.60;3.38;;;;;;;8.98;92.83;93427.13;5073247;28;20044;-84
2022/05/11 02:25:45;;;;;;;6.13;3.80;;;;;;;9.01;92.46;93426.72;5073004;28;20445;-84
2022/05/11 02:28:12;;;;;;;5.43;3.83;;;;;;;8.92;92.75;93419.25;5077398;28;20093;-84
2022/05/11 02:30:41;;;;;;;9.43;4.50;;;;;;;9.04;92.78;93434.03;5081672;28;20102;-84
2022/05/11 02:33:09;;;;;;;6.63;3.65;;;;;;;9.04;92.03;93436.59;5081660;28;21700;-85
2022/05/11 02:35:36;;;;;;;6.28;4.00;;;;;;;8.99;91.50;93429.50;5080528;28;20106;-84
2022/05/11 02:38:06;;;;;;;4.68;3.47;;;;;;;8.91;91.73;93427.91;5072798;28;20383;-84
2022/05/11 02:40:36;;;;;;;5.88;4.10;;;;;;;8.86;92.62;93435.38;5072837;28;20048;-84
2022/05/11 02:43:04;;;;;;;7.85;4.40;;;;;;;8.54;94.42;93410.28;5072766;28;20445;-84
2022/05/11 02:45:33;;;;;;;8.30;4.90;;;;;;;8.46;96.22;93420.66;5072656;28;20044;-84
2022/05/11 02:48:02;;;;;;;6.75;4.45;;;;;;;8.54;96.79;93438.44;5072730;28;20136;-85
2022/05/11 02:50:32;;;;;;;7.60;4.18;;;;;;;8.38;96.32;93426.72;5072823;28;20058;-85
2022/05/11 02:52:59;;;;;;;8.98;4.90;;;;;;;8.55;96.55;93434.09;5072617;28;20078;-85
2022/05/11 02:55:26;;;;;;;7.00;4.15;;;;;;;8.53;97.18;93436.06;5072285;28;20549;-85
2022/05/11 02:57:53;;;;;;;6.93;4.80;;;;;;;8.52;97.83;93429.38;5072241;28;20509;-86
2022/05/11 03:00:20;;;;;;;7.40;4.22;;;;;;;8.55;97.91;93439.22;5072637;28;20044;-85
2022/05/11 03:02:48;;;;;;;7.32;5.20;;;;;;;8.55;98.87;93440.00;5072957;28;20052;-86
2022/05/11 03:05:16;;;;;;;6.32;4.28;;;;;;;8.57;98.49;93452.63;5072418;28;20041;-85
2022/05/11 03:07:43;;;;;;;5.70;4.13;;;;;;;8.64;97.83;93452.63;5072550;28;20048;-85
2022/05/11 03:10:11;;;;;;;9.10;5.22;;;;;;;8.66;96.85;93454.03;5072388;28;20056;-85
2022/05/11 03:12:38;;;;;;;7.28;4.78;;;;;;;8.62;96.01;93450.28;5071943;28;20052;-85
2022/05/11 03:15:06;;;;;;;7.50;4.60;;;;;;;8.74;95.38;93462.56;5071892;28;20052;-84
2022/05/11 03:17:33;;;;;;;10.45;5.22;;;;;;;8.80;94.95;93464.34;5072300;28;20136;-85
2022/05/11 03:20:00;;;;;;;8.02;4.53;;;;;;;8.78;94.53;93456.03;5072129;28;20097;-85
2022/05/11 03:22:28;;;;;;;6.95;4.43;;;;;;;8.82;94.52;93464.94;5071936;28;20098;-85
2022/05/11 03:24:55;;;;;;;7.28;4.78;;;;;;;8.78;95.46;93469.66;5071696;28;20105;-85
2022/05/11 03:27:22;;;;;;;10.80;5.07;;;;;;;8.78;94.93;93467.09;5071756;28;20495;-85
2022/05/11 03:29:48;;;;;;;9.90;5.28;;;;;;;8.82;94.51;93470.84;5071919;28;20079;-84
2022/05/11 03:34:59;;;;;;;7.68;4.55;;;;;;;8.90;94.84;93464.78;5071691;28;20083;-83
2022/05/11 03:37:28;;;;;;;7.75;5.07;;;;;;;8.98;94.92;93466.34;5071734;28;20052;-85
2022/05/11 03:39:54;;;;;;;9.25;5.13;;;;;;;8.99;94.78;93467.94;5089777;28;20056;-85
2022/05/11 03:42:22;;;;;;;7.93;5.00;;;;;;;9.09;94.76;93470.91;5092072;28;20048;-85
2022/05/11 03:44:49;;;;;;;8.48;4.93;;;;;;;9.16;94.65;93475.28;5091903;28;20079;-84
2022/05/11 03:47:16;;;;;;;10.73;5.18;;;;;;;9.19;93.14;93455.19;5090296;28;20093;-83
2022/05/11 03:49:42;;;;;;;9.07;4.78;;;;;;;9.18;93.27;93447.69;5086782;28;20448;-83
2022/05/11 03:52:09;;;;;;;7.68;4.13;;;;;;;9.43;92.12;93478.66;5091058;28;20441;-84
2022/05/11 03:54:37;;;;;;;8.10;4.00;;;;;;;9.37;92.09;93466.63;5091594;28;20047;-84
2022/05/11 03:57:05;;;;;;;6.35;4.40;;;;;;;9.48;92.09;93481.44;5091555;28;20052;-84
2022/05/11 03:59:31;;;;;;;7.30;4.30;;;;;;;9.52;92.90;93486.97;5091514;28;20040;-84
2022/05/11 04:01:58;;;;;;;9.10;4.88;;;;;;;9.51;93.02;93482.03;5091573;28;20093;-84
2022/05/11 04:04:25;;;;;;;6.22;3.95;;;;;;;9.55;93.06;93486.59;5091519;28;20040;-84
2022/05/11 04:06:52;;;;;;;7.38;4.53;;;;;;;9.58;92.75;93483.59;5091317;28;20096;-84
2022/05/11 04:09:18;;;;;;;7.28;4.60;;;;;;;9.62;92.54;93484.00;5091165;28;20048;-84
2022/05/11 04:11:47;;;;;;;6.78;4.05;;;;;;;9.63;92.92;93480.47;5091279;28;20557;-84
2022/05/11 04:14:13;;;;;;;8.60;4.53;;;;;;;9.68;92.11;93479.88;5091500;28;20048;-85
2022/05/11 04:16:40;;;;;;;5.85;3.95;;;;;;;9.75;91.88;93489.16;5091394;28;20101;-84
2022/05/11 04:19:07;;;;;;;7.63;4.63;;;;;;;9.78;93.21;93487.16;5091090;28;20105;-84
2022/05/11 04:21:34;;;;;;;9.30;5.10;;;;;;;9.81;92.93;93485.00;5091140;28;20044;-85
2022/05/11 04:24:01;;;;;;;6.50;4.25;;;;;;;9.90;92.61;93493.28;5091309;28;20098;-84
2022/05/11 04:26:30;;;;;;;11.40;5.22;;;;;;;9.94;93.29;93489.34;5091263;28;20097;-84
2022/05/11 04:28:58;;;;;;;7.15;4.30;;;;;;;10.07;92.69;93500.56;5091147;28;20147;-84
2022/05/11 04:31:25;;;;;;;7.40;4.68;;;;;;;10.16;93.19;93504.53;5091150;28;20417;-85
2022/05/11 04:33:52;;;;;;;7.82;4.25;;;;;;;10.25;91.27;93499.97;5090846;28;20043;-84
2022/05/11 04:36:20;;;;;;;7.22;3.90;;;;;;;10.39;91.64;93504.09;5091183;28;20048;-84
2022/05/11 04:38:47;;;;;;;8.02;4.35;;;;;;;10.55;91.32;93504.66;5091146;28;20094;-85
2022/05/11 04:41:14;;;;;;;12.63;7.57;;;;;;;10.53;93.26;93504.88;5090914;28;20486;-84
2022/05/11 04:43:41;;;;;;;11.93;7.97;;;;;;;10.71;89.84;93508.59;5090905;28;20052;-84
2022/05/11 04:46:09;;;;;;;13.82;8.43;;;;;;;10.90;90.44;93501.81;5090879;28;20135;-84
2022/05/11 04:48:36;;;;;;;13.10;7.70;;;;;;;11.06;88.79;93505.69;5090991;28;20120;-84
2022/05/11 04:51:04;;;;;;;9.98;6.03;;;;;;;11.28;88.42;93512.28;5090817;28;20040;-84
2022/05/11 04:53:31;;;;;;;7.90;5.53;;;;;;;11.31;87.28;93478.47;5095202;28;20044;-84
2022/05/11 04:55:58;;;;;;;9.30;5.43;;;;;;;11.69;84.65;93515.41;5095094;28;20448;-84
2022/05/11 04:58:25;;;;;;;8.25;5.40;;;;;;;11.92;84.05;93512.28;5095014;28;20044;-84
2022/05/11 05:00:54;;;;;;;7.53;5.40;;;;;;;12.10;82.79;93509.00;5094980;28;20395;-85
2022/05/11 05:03:22;;;;;;;10.38;5.78;;;;;;;12.33;82.83;93512.78;5094826;28;20486;-84
2022/05/11 05:05:50;;;;;;;6.47;4.90;;;;;;;12.42;81.88;93498.59;5094855;28;20048;-84
2022/05/11 05:08:17;;;;;;;8.27;5.10;;;;;;;12.67;80.57;93507.25;5094856;28;20134;-84
2022/05/11 05:10:44;;;;;;;7.55;4.97;;;;;;;12.89;80.02;93519.72;5094645;28;20195;-84
2022/05/11 05:13:12;;;;;;;10.95;5.07;;;;;;;12.91;79.86;93503.03;5094597;28;20048;-85
2022/05/11 05:15:42;;;;;;;8.98;4.05;;;;;;;13.07;78.47;93526.66;5094546;28;20052;-86
2022/05/11 05:18:10;;;;;;;8.32;5.22;;;;;;;13.19;78.15;93514.59;5094761;28;20051;-85
2022/05/11 05:20:39;;;;;;;6.68;3.85;;;;;;;13.40;76.92;93527.22;5094681;28;20399;-85
2022/05/11 05:23:06;;;;;;;10.90;4.72;;;;;;;13.60;75.84;93527.00;5094599;28;20441;-85
2022/05/11 05:25:33;;;;;;;5.38;3.38;;;;;;;13.74;75.57;93530.97;5094467;28;20048;-85
2022/05/11 05:33:40;;;;;;;8.77;4.72;;;;;;;13.89;77.00;93533.13;5010403;28;20068;-85
2022/05/11 05:36:09;;;;;;;11.57;5.40;;;;;;;14.12;75.88;93536.75;5074711;28;20139;-85
2022/05/11 05:38:38;;;;;;;17.38;8.93;;;;;;;14.33;74.84;93539.81;5094149;28;20052;-85
2022/05/11 05:41:05;;;;;;;13.68;8.20;;;;;;;14.60;73.08;93536.75;5094383;28;20044;-85
2022/05/11 05:43:32;;;;;;;18.30;9.27;;;;;;;14.89;73.38;93533.47;5094065;28;20089;-85
2022/05/11 05:45:58;;;;;;;17.30;10.25;;;;;;;14.62;72.60;93498.53;5093975;28;20047;-85
2022/05/11 05:48:26;;;;;;;16.60;8.70;;;;;;;14.66;74.31;93538.44;5093864;28;20097;-85
2022/05/11 05:50:53;;;;;;;18.38;9.45;;;;;;;14.85;74.26;93540.91;5093826;28;20090;-86
2022/05/11 05:53:21;;;;;;;14.65;8.65;;;;;;;14.83;73.32;93543.72;5094250;28;20052;-85
2022/05/11 05:55:49;;;;;;;14.98;8.70;;;;;;;14.94;74.22;93541.34;5093955;28;20048;-85
2022/05/11 05:58:16;;;;;;;13.40;7.68;;;;;;;14.67;75.03;93544.38;5093907;28;20048;-86
2022/05/11 06:00:43;;;;;;;14.88;8.07;;;;;;;14.81;76.12;93535.41;5093916;28;20048;-86
2022/05/11 06:03:11;;;;;;;11.57;6.22;;;;;;;14.95;76.32;93551.47;5093743;28;20460;-86
2022/05/11 06:05:40;;;;;;;10.27;6.60;;;;;;;14.81;76.50;93538.00;5093649;28;20134;-87
2022/05/11 06:08:08;;;;;;;12.75;8.18;;;;;;;14.93;74.74;93547.53;5093500;28;20048;-85
2022/05/11 06:10:39;;;;;;;11.73;6.63;;;;;;;15.05;75.18;93557.88;5093654;28;20099;-85
2022/05/11 06:13:06;;;;;;;9.00;6.20;;;;;;;15.56;73.72;93549.50;5093662;28;20048;-86
2022/05/11 06:15:33;;;;;;;13.52;6.85;;;;;;;15.98;71.65;93541.41;5093554;28;20052;-85
2022/05/11 06:18:00;;;;;;;12.07;5.47;;;;;;;16.58;68.85;93545.38;5093480;28;20073;-85
2022/05/11 06:20:27;;;;;;;6.53;4.85;;;;;;;16.87;64.89;93556.41;5093700;28;20139;-85
2022/05/11 06:22:54;;;;;;;8.65;5.00;;;;;;;17.12;63.09;93503.25;5093565;28;20044;-85
2022/05/11 06:25:22;;;;;;;11.05;5.75;;;;;;;18.01;60.96;93552.41;5093572;28;20048;-86
2022/05/11 06:27:51;;;;;;;10.10;5.47;;;;;;;18.50;56.93;93561.13;5093317;28;20074;-85
2022/05/11 06:30:18;;;;;;;11.20;5.00;;;;;;;18.34;55.53;93559.47;5093182;28;20052;-85
2022/05/11 06:32:44;;;;;;;11.05;5.53;;;;;;;18.89;56.69;93561.88;5093088;28;20056;-85
2022/05/11 06:35:11;;;;;;;8.88;4.35;;;;;;;19.04;53.92;93548.19;5092964;28;20490;-85
2022/05/11 06:37:40;;;;;;;9.27;5.47;;;;;;;19.38;53.89;93552.22;5093022;28;20540;-85
2022/05/11 06:40:08;;;;;;;8.45;4.90;;;;;;;19.77;52.39;93544.72;5092945;28;20040;-85
2022/05/11 06:42:35;;;;;;;6.38;4.07;;;;;;;20.11;50.74;93547.91;5093078;28;20043;-85
2022/05/11 06:45:05;;;;;;;11.85;5.47;;;;;;;20.35;49.86;93557.81;5092802;28;20490;-86
2022/05/11 06:47:32;;;;;;;10.15;5.45;;;;;;;20.44;50.41;93545.81;5093023;28;20044;-86
2022/05/11 06:49:59;;;;;;;8.10;4.18;;;;;;;20.91;48.05;93556.19;5092886;28;20450;-85
2022/05/11 06:52:26;;;;;;;8.55;4.00;;;;;;;20.95;47.79;93534.50;5092742;28;20168;-87
2022/05/11 07:00:29;;;;;;;7.70;3.88;;;;;;;21.65;45.79;93539.16;5092478;28;20181;-86
2022/05/11 07:02:56;;;;;;;7.35;4.05;;;;;;;21.18;46.17;93547.22;5092597;28;20046;-87
2022/05/11 07:05:23;;;;;;;6.70;3.38;;;;;;;20.14;48.17;93553.38;5092619;28;20052;-87
2022/05/11 07:07:52;;;;;;;6.22;3.78;;;;;;;20.73;48.85;93549.69;5092339;28;20091;-87
2022/05/11 07:10:19;;;;;;;7.68;3.55;;;;;;;21.27;48.21;93552.66;5092576;28;20052;-87
2022/05/11 07:12:47;;;;;;;6.60;3.53;;;;;;;21.71;46.71;93549.31;5092578;28;20113;-85
2022/05/11 07:15:15;;;;;;;9.00;3.90;;;;;;;21.57;46.18;93537.91;5091856;28;20078;-86
2022/05/11 07:17:48;;;;;;;6.95;3.35;;;;;;;22.05;46.29;93539.97;5092420;28;20056;-86
2022/05/11 07:20:18;;;;;;;6.25;3.50;;;;;;;22.30;44.69;93543.41;5092245;28;20063;-86
2022/05/11 07:22:45;;;;;;;6.88;3.50;;;;;;;21.78;46.72;93543.00;5092487;28;20044;-87
2022/05/11 07:25:14;;;;;;;4.93;2.90;;;;;;;21.56;46.79;93546.78;5092097;28;20048;-86
2022/05/11 07:27:44;;;;;;;9.15;3.65;;;;;;;22.09;46.03;93532.34;5092155;28;20109;-85
2022/05/11 07:30:15;;;;;;;6.75;3.45;;;;;;;22.53;45.36;93533.28;5092237;28;20048;-86
2022/05/11 07:32:43;;;;;;;11.27;2.95;;;;;;;23.02;43.92;93533.31;5092241;28;20040;-84
2022/05/11 07:35:10;;;;;;;5.57;2.65;;;;;;;23.25;43.09;93544.84;5091749;28;20425;-84
2022/05/11 07:37:37;;;;;;;6.50;3.00;;;;;;;23.45;42.59;93538.59;5091836;28;20105;-85
2022/05/11 07:40:05;;;;;;;6.32;3.00;;;;;;;23.74;42.12;93521.94;5091964;28;20048;-85
2022/05/11 07:42:32;;;;;;;4.78;2.88;;;;;;;22.36;44.03;93541.53;5091860;28;20056;-84
2022/05/11 07:44:59;;;;;;;6.68;3.05;;;;;;;22.25;46.54;93531.16;5091029;28;20040;-86
2022/05/11 07:47:26;;;;;;;6.85;3.03;;;;;;;22.12;45.53;93531.81;5091758;28;20157;-88
2022/05/11 07:49:54;;;;;;;4.45;2.45;;;;;;;22.08;43.09;93517.69;5091261;28;20048;-85
2022/05/11 07:52:21;;;;;;;8.30;3.30;;;;;;;22.39;42.27;93531.31;5091905;28;20075;-83
2022/05/11 07:54:48;;;;;;;4.97;3.20;;;;;;;22.79;43.13;93527.81;5091504;28;20052;-84
2022/05/11 08:00:08;;;;;;;3.92;2.60;;;;;;;23.54;41.89;93506.47;5034419;28;20063;-93
2022/05/11 08:02:39;;;;;;;4.13;2.35;;;;;;;23.88;40.66;93510.69;5091737;28;20051;-85
2022/05/11 08:05:09;;;;;;;4.38;2.50;;;;;;;22.88;41.38;93507.81;5091326;28;20099;-86
2022/05/11 08:07:40;;;;;;;4.93;2.78;;;;;;;22.50;42.12;93515.50;5091517;28;20052;-86
2022/05/11 08:10:10;;;;;;;5.50;2.75;;;;;;;23.09;42.18;93502.31;5091172;28;20101;-87
2022/05/11 08:12:36;;;;;;;5.35;2.90;;;;;;;20.73;45.87;93521.75;5091227;28;20089;-85
2022/05/11 08:15:05;;;;;;;5.38;2.75;;;;;;;21.06;47.23;93511.75;5091674;28;20060;-86
2022/05/11 08:17:34;;;;;;;8.15;3.10;;;;;;;21.97;45.37;93507.31;5091192;28;20478;-85
2022/05/11 08:20:01;;;;;;;4.28;2.20;;;;;;;21.61;45.52;93491.84;5091434;28;20089;-86
2022/05/11 08:22:30;;;;;;;5.47;2.95;;;;;;;22.35;44.86;93500.72;5091128;28;20051;-88
2022/05/11 08:24:58;;;;;;;10.70;4.22;;;;;;;22.32;43.87;93496.03;5091054;28;20052;-87
2022/05/11 08:27:28;;;;;;;4.47;2.33;;;;;;;21.99;45.69;93501.81;5090483;28;20056;-89
2022/05/11 08:35:28;;;;;;;5.53;2.60;;;;;;;22.74;43.80;93502.47;5090934;28;20318;-86
2022/05/11 08:37:56;;;;;;;4.95;2.35;;;;;;;23.21;43.02;93499.28;5090965;28;20048;-84
2022/05/11 08:40:38;;;;;;;3.97;1.83;;;;;;;23.26;39.63;93503.66;5091120;28;20406;-86
2022/05/11 08:43:09;;;;;;;4.45;2.63;;;;;;;22.71;41.49;93512.72;5090961;28;20052;-85
2022/05/11 08:45:41;;;;;;;3.80;1.88;;;;;;;22.95;41.45;93499.59;5090864;28;20541;-87
2022/05/11 08:48:11;;;;;;;3.10;1.83;;;;;;;23.22;40.14;93512.13;5090985;28;20052;-88
2022/05/11 08:50:42;;;;;;;6.13;2.20;;;;;;;23.64;39.77;93502.94;5090744;28;20052;-85
2022/05/11 08:53:28;;;;;;;2.75;1.75;;;;;;;24.10;39.87;93507.50;5090739;28;20044;-88
2022/05/11 08:55:57;;;;;;;4.32;2.33;;;;;;;23.26;38.55;93507.09;5090669;28;20510;-87
2022/05/11 08:58:28;;;;;;;3.45;1.75;;;;;;;23.04;36.76;93497.13;5090701;28;20048;-88
2022/05/11 09:00:59;;;;;;;3.45;1.77;;;;;;;23.48;38.58;93501.31;5090980;28;20048;-88
2022/05/11 09:03:32;;;;;;;3.28;1.80;;;;;;;23.57;37.39;93490.19;5090600;28;20048;-85
2022/05/11 09:06:00;;;;;;;3.95;2.58;;;;;;;23.22;37.33;93506.09;5090874;28;20075;-86
2022/05/11 09:08:33;;;;;;;2.63;1.70;;;;;;;22.47;38.99;93510.81;5071163;28;20053;-85
2022/05/11 09:11:02;;;;;;;2.50;1.67;;;;;;;23.02;37.46;93504.50;5071053;28;20056;-89
2022/05/11 09:13:29;;;;;;;4.57;2.22;;;;;;;23.62;36.94;93498.75;5070735;28;20044;-88
2022/05/11 09:16:01;;;;;;;2.88;1.65;;;;;;;23.08;35.52;93498.91;5070504;28;20044;-88
2022/05/11 09:18:39;;;;;;;3.50;1.70;;;;;;;22.69;38.22;93498.03;5070460;28;20094;-89
2022/05/11 09:21:19;;;;;;;3.80;1.65;;;;;;;22.89;37.92;93471.91;5070339;28;20044;-89
2022/05/11 09:24:06;;;;;;;2.65;1.50;;;;;;;22.20;38.58;93506.84;5070527;28;20044;-87
2022/05/11 09:26:36;;;;;;;3.08;1.63;;;;;;;21.94;39.29;93505.22;5070497;28;20087;-86
2022/05/11 09:29:20;;;;;;;3.13;1.95;;;;;;;22.62;37.70;93476.66;5070508;28;20044;-88
2022/05/11 09:31:53;;;;;;;5.93;1.88;;;;;;;23.23;37.87;93500.56;5068560;28;20051;-86
2022/05/11 09:34:33;;;;;;;3.42;1.92;;;;;;;23.94;36.44;93493.84;5070477;28;20049;-88
2022/05/11 09:37:07;;;;;;;4.68;2.13;;;;;;;24.49;35.36;93471.41;5070367;28;20045;-89
2022/05/11 09:39:36;;;;;;;3.42;1.73;;;;;;;23.51;35.70;93492.09;5073997;28;20110;-89
2022/05/11 09:42:15;;;;;;;2.90;1.90;;;;;;;23.56;35.75;93499.13;5073865;28;20047;-86
2022/05/11 09:44:44;;;;;;;2.75;1.70;;;;;;;23.49;35.58;93504.72;5074064;28;20421;-86
2022/05/11 09:47:27;;;;;;;4.22;1.77;;;;;;;23.10;36.88;93503.88;5074016;28;20055;-86
2022/05/11 09:49:54;;;;;;;3.80;2.05;;;;;;;23.09;35.47;93507.53;5073848;28;20043;-85
2022/05/11 09:52:39;;;;;;;2.28;1.50;;;;;;;23.33;36.04;93477.94;5073660;28;20482;-87
2022/05/11 09:55:18;;;;;;;2.97;1.80;;;;;;;24.05;35.97;93491.03;5073566;28;20048;-87
2022/05/11 09:57:56;;;;;;;2.80;1.70;;;;;;;22.72;36.28;93501.94;5073618;28;20478;-84
2022/05/11 10:00:29;;;;;;;4.68;1.73;;;;;;;23.11;35.70;93494.97;5073658;28;20041;-87
2022/05/11 10:03:02;;;;;;;4.00;1.70;;;;;;;23.41;36.77;93481.78;5073437;28;20414;-87
2022/05/11 10:05:32;;;;;;;2.42;1.60;;;;;;;23.61;34.22;93483.31;5073502;28;20470;-87
2022/05/11 10:08:05;;;;;;;2.67;1.52;;;;;;;24.13;35.02;93479.91;5073567;28;20044;-88
2022/05/11 10:10:39;;;;;;;2.78;1.38;;;;;;;24.30;34.40;93481.97;5073272;28;20490;-85
2022/05/11 10:13:15;;;;;;;4.07;1.48;;;;;;;24.67;34.03;93479.50;5073427;28;20052;-87
2022/05/11 10:24:25;;;;;;;3.60;1.23;;;;;;;26.44;32.10;93465.16;5073226;28;20047;-85
2022/05/11 10:27:01;;;;;;;6.85;2.15;;;;;;;24.66;32.82;93462.97;5073275;28;20094;-85
2022/05/11 10:29:37;;;;;;;;;;;;;;;24.12;33.09;93463.38;5073658;28;20398;-87
2022/05/11 10:32:10;;;;;;;2.13;1.17;;;;;;;22.80;34.38;93471.75;5072929;28;19920;-87
2022/05/11 10:34:45;;;;;;;3.65;1.50;;;;;;;22.11;37.25;93470.06;5072951;28;20044;-85
2022/05/11 10:37:19;;;;;;;;;;;;;;;21.77;37.29;93474.25;5073585;28;20052;-89
2022/05/11 10:40:03;;;;;;;2.17;1.30;;;;;;;22.02;37.26;93465.44;5072888;28;20014;-88
2022/05/11 10:42:35;;;;;;;4.20;1.52;;;;;;;22.03;36.58;93474.03;5072779;28;20503;-89
2022/05/11 10:45:12;;;;;;;3.88;1.60;;;;;;;22.56;37.52;93467.31;5072798;28;20079;-85
2022/05/11 10:48:01;;;;;;;4.93;2.25;;;;;;;23.29;36.07;93450.69;5075294;28;20505;-88
2022/05/11 10:50:40;;;;;;;2.58;1.42;;;;;;;24.09;35.33;93463.19;5080037;28;20040;-86
2022/05/11 10:53:27;;;;;;;3.67;1.85;;;;;;;24.47;35.02;93457.00;5081406;28;20042;-87
2022/05/11 10:56:12;;;;;;;2.95;1.45;;;;;;;24.97;33.57;93450.31;5082643;28;20406;-87
2022/05/11 10:59:05;;;;;;;2.60;1.20;;;;;;;25.15;34.18;93459.94;5083158;28;20060;-87
2022/05/11 11:01:45;;;;;;;3.92;1.10;;;;;;;25.19;33.49;93460.88;5081787;28;20560;-89
2022/05/11 11:04:30;;;;;;;2.90;1.10;;;;;;;24.58;30.93;93454.97;5080208;28;20040;-87
2022/05/11 11:07:21;;;;;;;2.22;1.40;;;;;;;25.31;32.32;93454.31;5082777;28;20040;-86
2022/05/11 11:10:09;;;;;;;2.03;1.02;;;;;;;24.49;31.01;93447.78;5081164;28;20043;-86
2022/05/11 11:13:17;;;;;;;2.83;1.10;;;;;;;24.57;31.53;93450.81;5082503;28;20037;-87
2022/05/11 11:15:46;;;;;;;1.98;1.17;;;;;;;25.19;31.81;93431.97;5051789;28;20040;-88
2022/05/11 11:18:17;;;;;;;2.05;1.17;;;;;;;25.12;32.60;93399.28;5072650;28;20355;-90
2022/05/11 11:20:46;;;;;;;1.98;1.23;;;;;;;26.22;31.57;93437.78;5072529;28;20375;-88
2022/05/11 11:23:38;;;;;;;2.42;1.33;;;;;;;26.76;31.13;93435.03;5087718;28;20081;-84
2022/05/11 11:26:09;;;;;;;2.10;1.15;;;;;;;25.88;29.17;93456.47;5092720;28;20040;-84
2022/05/11 11:29:08;;;;;;;1.95;1.17;;;;;;;26.45;30.64;93443.00;5092045;28;20044;-86
2022/05/11 11:32:17;;;;;;;2.03;1.05;;;;;;;25.99;31.22;93440.44;5078481;28;20043;-83
2022/05/11 11:34:49;;;;;;;2.63;1.02;;;;;;;25.20;32.72;93420.41;5091879;28;20040;-88
2022/05/11 11:37:46;;;;;;;3.60;1.00;;;;;;;25.04;31.63;93442.81;5091830;28;20044;-89
2022/05/11 11:40:24;;;;;;;3.33;1.20;;;;;;;25.54;32.89;93436.75;5082588;28;20048;-80
2022/05/11 11:42:52;;;;;;;11.45;3.83;;;;;;;22.29;39.12;93447.66;5071741;28;20398;-84
2022/05/11 11:46:04;;;;;;;2.78;1.92;;;;;;;21.51;41.39;93444.88;5071797;28;20079;-88
2022/05/11 11:48:34;;;;;;;4.55;2.10;;;;;;;21.02;43.21;93457.72;5071827;28;20536;-85
2022/05/11 11:51:11;;;;;;;3.28;2.20;;;;;;;20.71;43.70;93461.19;5071540;28;20056;-85
2022/05/11 11:53:55;;;;;;;7.65;5.03;;;;;;;20.00;46.00;93456.66;5071437;28;20040;-82
2022/05/11 11:56:48;;;;;;;5.72;2.25;;;;;;;19.98;46.27;93466.56;5071519;28;20098;-86
2022/05/11 11:59:34;;;;;;;3.03;1.75;;;;;;;19.65;48.08;93441.78;5052551;28;20894;-86
2022/05/11 12:02:13;;;;;;;4.57;2.05;;;;;;;20.18;48.45;93459.75;5071728;28;20480;-86
2022/05/11 12:04:45;;;;;;;3.50;2.17;;;;;;;20.14;47.78;93445.69;5071540;28;20048;-86
2022/05/11 12:15:35;;;;;;;;;;;;;;;19.94;49.36;93465.50;5071518;28;20051;-88
2022/05/11 12:18:20;;;;;;;3.65;2.10;;;;;;;19.65;50.75;93471.22;5074937;28;19927;-85
2022/05/11 12:20:49;;;;;;;4.00;2.38;;;;;;;19.62;52.13;93467.31;5081865;28;20050;-84
2022/05/11 12:23:21;;;;;;;3.22;2.30;;;;;;;19.06;53.01;93483.63;5084191;28;20044;-82
2022/05/11 12:26:00;;;;;;;5.82;1.77;;;;;;;18.93;54.29;93469.25;5070177;28;20041;-91
2022/05/11 12:28:33;;;;;;;2.47;1.67;;;;;;;18.63;54.42;93475.88;5071197;28;20060;-93
2022/05/11 12:31:01;;;;;;;2.90;1.40;;;;;;;18.34;56.56;93479.66;5071045;28;20044;-84
2022/05/11 12:33:30;;;;;;;2.58;1.75;;;;;;;18.39;56.87;93486.69;5071286;28;20049;-83
2022/05/11 12:35:58;;;;;;;2.83;1.80;;;;;;;18.02;58.00;93476.00;5071021;28;20131;-89
2022/05/11 12:38:28;;;;;;;2.85;1.50;;;;;;;18.02;57.83;93477.84;5070314;28;20130;-85